sensor_id;sensor_type;location;lat;lon;timestamp;P1;durP1;ratioP1;P2;durP2;ratioP2
10432;SDS011;5263;48.680;9.004;2023-05-16T00:01:15;8.73;;;8.00;;
10432;SDS011;5263;48.680;9.004;2023-05-16T00:03:41;9.40;;;8.43;;
10432;SDS011;5263;48.680;9.004;2023-05-16T00:06:07;10.73;;;9.77;;
10432;SDS011;5263;48.680;9.004;2023-05-16T00:08:33;12.87;;;10.30;;
10432;SDS011;5263;48.680;9.004;2023-05-16T00:10:59;10.93;;;10.03;;
10432;SDS011;5263;48.680;9.004;2023-05-16T00:13:25;10.77;;;9.87;;
10432;SDS011;5263;48.680;9.004;2023-05-16T00:15:52;13.20;;;11.17;;
10432;SDS011;5263;48.680;9.004;2023-05-16T00:18:20;13.33;;;11.73;;
10432;SDS011;5263;48.680;9.004;2023-05-16T00:20:50;12.87;;;11.60;;
10432;SDS011;5263;48.680;9.004;2023-05-16T00:23:17;14.80;;;13.30;;
10432;SDS011;5263;48.680;9.004;2023-05-16T00:25:42;13.27;;;12.13;;
10432;SDS011;5263;48.680;9.004;2023-05-16T00:28:09;15.00;;;13.63;;
10432;SDS011;5263;48.680;9.004;2023-05-16T00:30:34;14.47;;;13.27;;
10432;SDS011;5263;48.680;9.004;2023-05-16T00:33:00;14.07;;;12.87;;
10432;SDS011;5263;48.680;9.004;2023-05-16T00:35:26;14.90;;;13.33;;
10432;SDS011;5263;48.680;9.004;2023-05-16T00:37:52;15.23;;;13.50;;
10432;SDS011;5263;48.680;9.004;2023-05-16T00:40:17;17.20;;;15.60;;
10432;SDS011;5263;48.680;9.004;2023-05-16T00:42:43;15.37;;;13.87;;
10432;SDS011;5263;48.680;9.004;2023-05-16T00:45:08;16.67;;;15.17;;
10432;SDS011;5263;48.680;9.004;2023-05-16T00:47:35;18.33;;;16.07;;
10432;SDS011;5263;48.680;9.004;2023-05-16T00:50:01;19.77;;;16.60;;
10432;SDS011;5263;48.680;9.004;2023-05-16T00:52:28;18.30;;;16.40;;
10432;SDS011;5263;48.680;9.004;2023-05-16T00:54:55;19.03;;;16.97;;
10432;SDS011;5263;48.680;9.004;2023-05-16T00:57:21;19.47;;;17.40;;
10432;SDS011;5263;48.680;9.004;2023-05-16T00:59:47;20.20;;;17.97;;
10432;SDS011;5263;48.680;9.004;2023-05-16T01:02:13;21.53;;;19.43;;
10432;SDS011;5263;48.680;9.004;2023-05-16T01:04:39;24.50;;;21.90;;
10432;SDS011;5263;48.680;9.004;2023-05-16T01:07:06;23.67;;;21.37;;
10432;SDS011;5263;48.680;9.004;2023-05-16T01:09:32;25.50;;;22.40;;
10432;SDS011;5263;48.680;9.004;2023-05-16T01:12:03;25.30;;;22.67;;
10432;SDS011;5263;48.680;9.004;2023-05-16T01:14:55;26.00;;;23.40;;
10432;SDS011;5263;48.680;9.004;2023-05-16T01:17:39;25.97;;;22.53;;
10432;SDS011;5263;48.680;9.004;2023-05-16T01:23:22;24.63;;;21.13;;
10432;SDS011;5263;48.680;9.004;2023-05-16T01:26:19;25.97;;;23.27;;
10432;SDS011;5263;48.680;9.004;2023-05-16T01:28:46;26.83;;;23.83;;
10432;SDS011;5263;48.680;9.004;2023-05-16T01:31:13;30.63;;;23.83;;
10432;SDS011;5263;48.680;9.004;2023-05-16T01:33:40;28.10;;;25.10;;
10432;SDS011;5263;48.680;9.004;2023-05-16T01:39:01;27.20;;;24.37;;
10432;SDS011;5263;48.680;9.004;2023-05-16T01:41:48;34.23;;;27.87;;
10432;SDS011;5263;48.680;9.004;2023-05-16T01:44:40;33.60;;;28.80;;
10432;SDS011;5263;48.680;9.004;2023-05-16T01:47:19;33.00;;;26.97;;
10432;SDS011;5263;48.680;9.004;2023-05-16T01:52:31;34.63;;;28.87;;
10432;SDS011;5263;48.680;9.004;2023-05-16T01:55:02;32.50;;;26.90;;
10432;SDS011;5263;48.680;9.004;2023-05-16T01:57:28;33.10;;;27.57;;
10432;SDS011;5263;48.680;9.004;2023-05-16T01:59:56;39.50;;;30.50;;
10432;SDS011;5263;48.680;9.004;2023-05-16T02:02:22;34.17;;;29.57;;
10432;SDS011;5263;48.680;9.004;2023-05-16T02:04:49;36.73;;;31.20;;
10432;SDS011;5263;48.680;9.004;2023-05-16T02:07:15;34.70;;;30.63;;
10432;SDS011;5263;48.680;9.004;2023-05-16T02:09:40;37.03;;;31.40;;
10432;SDS011;5263;48.680;9.004;2023-05-16T02:12:06;34.87;;;31.13;;
10432;SDS011;5263;48.680;9.004;2023-05-16T02:14:32;36.43;;;30.47;;
10432;SDS011;5263;48.680;9.004;2023-05-16T02:16:57;36.83;;;30.23;;
10432;SDS011;5263;48.680;9.004;2023-05-16T02:19:23;37.10;;;30.47;;
10432;SDS011;5263;48.680;9.004;2023-05-16T02:21:49;37.50;;;31.93;;
10432;SDS011;5263;48.680;9.004;2023-05-16T02:24:15;35.90;;;30.33;;
10432;SDS011;5263;48.680;9.004;2023-05-16T02:26:41;36.10;;;30.47;;
10432;SDS011;5263;48.680;9.004;2023-05-16T02:29:06;43.20;;;33.60;;
10432;SDS011;5263;48.680;9.004;2023-05-16T02:31:33;41.23;;;32.87;;
10432;SDS011;5263;48.680;9.004;2023-05-16T02:33:59;44.70;;;34.27;;
10432;SDS011;5263;48.680;9.004;2023-05-16T02:36:25;41.87;;;33.63;;
10432;SDS011;5263;48.680;9.004;2023-05-16T02:38:51;42.73;;;32.57;;
10432;SDS011;5263;48.680;9.004;2023-05-16T02:41:17;38.17;;;31.67;;
10432;SDS011;5263;48.680;9.004;2023-05-16T02:43:43;40.73;;;32.50;;
10432;SDS011;5263;48.680;9.004;2023-05-16T02:48:51;44.53;;;34.10;;
10432;SDS011;5263;48.680;9.004;2023-05-16T02:51:22;45.70;;;33.83;;
10432;SDS011;5263;48.680;9.004;2023-05-16T02:53:49;48.40;;;37.73;;
10432;SDS011;5263;48.680;9.004;2023-05-16T02:56:15;47.13;;;35.27;;
10432;SDS011;5263;48.680;9.004;2023-05-16T02:58:41;48.10;;;36.70;;
10432;SDS011;5263;48.680;9.004;2023-05-16T03:01:07;49.40;;;39.20;;
10432;SDS011;5263;48.680;9.004;2023-05-16T03:03:33;49.70;;;38.73;;
10432;SDS011;5263;48.680;9.004;2023-05-16T03:06:00;47.80;;;37.80;;
10432;SDS011;5263;48.680;9.004;2023-05-16T03:08:26;53.33;;;39.33;;
10432;SDS011;5263;48.680;9.004;2023-05-16T03:10:52;47.40;;;37.27;;
10432;SDS011;5263;48.680;9.004;2023-05-16T03:13:17;50.03;;;37.70;;
10432;SDS011;5263;48.680;9.004;2023-05-16T03:15:43;49.87;;;39.10;;
10432;SDS011;5263;48.680;9.004;2023-05-16T03:18:08;56.53;;;41.73;;
10432;SDS011;5263;48.680;9.004;2023-05-16T03:20:35;53.73;;;40.00;;
10432;SDS011;5263;48.680;9.004;2023-05-16T03:23:01;55.67;;;39.80;;
10432;SDS011;5263;48.680;9.004;2023-05-16T03:25:27;55.67;;;41.33;;
10432;SDS011;5263;48.680;9.004;2023-05-16T03:27:53;50.17;;;38.80;;
10432;SDS011;5263;48.680;9.004;2023-05-16T03:30:18;52.13;;;39.23;;
10432;SDS011;5263;48.680;9.004;2023-05-16T03:32:45;50.13;;;40.67;;
10432;SDS011;5263;48.680;9.004;2023-05-16T03:35:10;54.03;;;40.73;;
10432;SDS011;5263;48.680;9.004;2023-05-16T03:37:36;55.97;;;41.53;;
10432;SDS011;5263;48.680;9.004;2023-05-16T03:40:03;56.07;;;40.83;;
10432;SDS011;5263;48.680;9.004;2023-05-16T03:42:32;52.97;;;40.00;;
10432;SDS011;5263;48.680;9.004;2023-05-16T03:44:57;55.80;;;41.60;;
10432;SDS011;5263;48.680;9.004;2023-05-16T03:47:23;60.97;;;43.53;;
10432;SDS011;5263;48.680;9.004;2023-05-16T03:49:49;57.47;;;41.83;;
10432;SDS011;5263;48.680;9.004;2023-05-16T03:52:14;63.53;;;45.53;;
10432;SDS011;5263;48.680;9.004;2023-05-16T03:54:40;57.63;;;42.20;;
10432;SDS011;5263;48.680;9.004;2023-05-16T03:57:05;60.40;;;44.63;;
10432;SDS011;5263;48.680;9.004;2023-05-16T03:59:31;59.57;;;43.50;;
10432;SDS011;5263;48.680;9.004;2023-05-16T04:01:58;58.83;;;44.13;;
10432;SDS011;5263;48.680;9.004;2023-05-16T04:04:24;58.83;;;44.30;;
10432;SDS011;5263;48.680;9.004;2023-05-16T04:06:50;64.03;;;46.20;;
10432;SDS011;5263;48.680;9.004;2023-05-16T04:09:15;60.60;;;44.67;;
10432;SDS011;5263;48.680;9.004;2023-05-16T04:11:41;57.83;;;43.27;;
10432;SDS011;5263;48.680;9.004;2023-05-16T04:14:07;58.90;;;44.20;;
10432;SDS011;5263;48.680;9.004;2023-05-16T04:16:32;57.93;;;42.57;;
10432;SDS011;5263;48.680;9.004;2023-05-16T04:18:58;57.10;;;43.20;;
10432;SDS011;5263;48.680;9.004;2023-05-16T04:21:24;54.43;;;42.90;;
10432;SDS011;5263;48.680;9.004;2023-05-16T04:23:49;58.43;;;43.50;;
10432;SDS011;5263;48.680;9.004;2023-05-16T04:26:15;63.37;;;43.57;;
10432;SDS011;5263;48.680;9.004;2023-05-16T04:28:40;62.17;;;45.53;;
10432;SDS011;5263;48.680;9.004;2023-05-16T04:31:06;59.83;;;44.70;;
10432;SDS011;5263;48.680;9.004;2023-05-16T04:33:32;63.43;;;46.13;;
10432;SDS011;5263;48.680;9.004;2023-05-16T04:35:58;62.77;;;45.93;;
10432;SDS011;5263;48.680;9.004;2023-05-16T04:38:24;59.90;;;43.53;;
10432;SDS011;5263;48.680;9.004;2023-05-16T04:40:50;62.70;;;45.17;;
10432;SDS011;5263;48.680;9.004;2023-05-16T04:43:16;60.50;;;43.77;;
10432;SDS011;5263;48.680;9.004;2023-05-16T04:45:43;59.03;;;44.30;;
10432;SDS011;5263;48.680;9.004;2023-05-16T04:48:09;59.50;;;45.40;;
10432;SDS011;5263;48.680;9.004;2023-05-16T04:50:35;64.67;;;44.77;;
10432;SDS011;5263;48.680;9.004;2023-05-16T04:53:01;60.93;;;42.30;;
10432;SDS011;5263;48.680;9.004;2023-05-16T04:55:27;63.50;;;43.93;;
10432;SDS011;5263;48.680;9.004;2023-05-16T04:57:52;61.90;;;44.10;;
10432;SDS011;5263;48.680;9.004;2023-05-16T05:00:18;66.60;;;44.87;;
10432;SDS011;5263;48.680;9.004;2023-05-16T05:02:44;60.17;;;45.63;;
10432;SDS011;5263;48.680;9.004;2023-05-16T05:05:10;59.37;;;45.03;;
10432;SDS011;5263;48.680;9.004;2023-05-16T05:07:36;77.73;;;43.50;;
10432;SDS011;5263;48.680;9.004;2023-05-16T05:10:02;61.40;;;46.77;;
10432;SDS011;5263;48.680;9.004;2023-05-16T05:12:28;62.60;;;46.37;;
10432;SDS011;5263;48.680;9.004;2023-05-16T05:14:53;65.17;;;43.63;;
10432;SDS011;5263;48.680;9.004;2023-05-16T05:17:19;55.90;;;42.93;;
10432;SDS011;5263;48.680;9.004;2023-05-16T05:19:45;60.17;;;43.50;;
10432;SDS011;5263;48.680;9.004;2023-05-16T05:22:12;63.67;;;46.63;;
10432;SDS011;5263;48.680;9.004;2023-05-16T05:24:38;60.93;;;44.30;;
10432;SDS011;5263;48.680;9.004;2023-05-16T05:27:04;66.20;;;45.40;;
10432;SDS011;5263;48.680;9.004;2023-05-16T05:29:29;55.73;;;44.00;;
10432;SDS011;5263;48.680;9.004;2023-05-16T05:31:55;62.57;;;41.80;;
10432;SDS011;5263;48.680;9.004;2023-05-16T05:34:21;57.30;;;42.90;;
10432;SDS011;5263;48.680;9.004;2023-05-16T05:36:46;58.83;;;43.87;;
10432;SDS011;5263;48.680;9.004;2023-05-16T05:39:12;55.97;;;41.37;;
10432;SDS011;5263;48.680;9.004;2023-05-16T05:41:37;57.57;;;41.70;;
10432;SDS011;5263;48.680;9.004;2023-05-16T05:44:04;55.47;;;41.33;;
10432;SDS011;5263;48.680;9.004;2023-05-16T05:46:30;55.23;;;41.50;;
10432;SDS011;5263;48.680;9.004;2023-05-16T05:48:56;52.93;;;39.40;;
10432;SDS011;5263;48.680;9.004;2023-05-16T05:51:22;59.47;;;41.07;;
10432;SDS011;5263;48.680;9.004;2023-05-16T05:53:48;46.20;;;38.27;;
10432;SDS011;5263;48.680;9.004;2023-05-16T05:56:14;50.23;;;38.40;;
10432;SDS011;5263;48.680;9.004;2023-05-16T05:58:39;52.77;;;41.33;;
10432;SDS011;5263;48.680;9.004;2023-05-16T06:01:06;52.30;;;40.03;;
10432;SDS011;5263;48.680;9.004;2023-05-16T06:03:32;50.17;;;38.70;;
10432;SDS011;5263;48.680;9.004;2023-05-16T06:05:57;52.70;;;41.33;;
10432;SDS011;5263;48.680;9.004;2023-05-16T06:08:23;52.40;;;39.73;;
10432;SDS011;5263;48.680;9.004;2023-05-16T06:10:48;51.47;;;39.27;;
10432;SDS011;5263;48.680;9.004;2023-05-16T06:13:14;47.13;;;37.47;;
10432;SDS011;5263;48.680;9.004;2023-05-16T06:15:40;45.20;;;37.50;;
10432;SDS011;5263;48.680;9.004;2023-05-16T06:18:05;44.30;;;36.57;;
10432;SDS011;5263;48.680;9.004;2023-05-16T06:20:31;47.83;;;35.87;;
10432;SDS011;5263;48.680;9.004;2023-05-16T06:22:57;47.43;;;36.27;;
10432;SDS011;5263;48.680;9.004;2023-05-16T06:25:22;44.37;;;35.53;;
10432;SDS011;5263;48.680;9.004;2023-05-16T06:27:48;44.00;;;34.83;;
10432;SDS011;5263;48.680;9.004;2023-05-16T06:30:14;43.30;;;33.73;;
10432;SDS011;5263;48.680;9.004;2023-05-16T06:32:40;40.23;;;34.37;;
10432;SDS011;5263;48.680;9.004;2023-05-16T06:35:07;45.30;;;33.77;;
10432;SDS011;5263;48.680;9.004;2023-05-16T06:37:33;39.87;;;33.03;;
10432;SDS011;5263;48.680;9.004;2023-05-16T06:39:59;39.47;;;34.03;;
10432;SDS011;5263;48.680;9.004;2023-05-16T06:42:24;37.90;;;30.20;;
10432;SDS011;5263;48.680;9.004;2023-05-16T06:44:50;36.63;;;29.90;;
10432;SDS011;5263;48.680;9.004;2023-05-16T06:47:16;34.77;;;29.73;;
10432;SDS011;5263;48.680;9.004;2023-05-16T06:49:42;36.43;;;29.17;;
10432;SDS011;5263;48.680;9.004;2023-05-16T06:52:07;34.13;;;29.40;;
10432;SDS011;5263;48.680;9.004;2023-05-16T06:54:33;34.57;;;30.17;;
10432;SDS011;5263;48.680;9.004;2023-05-16T06:56:59;34.93;;;29.63;;
10432;SDS011;5263;48.680;9.004;2023-05-16T06:59:25;35.90;;;30.07;;
10432;SDS011;5263;48.680;9.004;2023-05-16T07:01:50;34.70;;;30.43;;
10432;SDS011;5263;48.680;9.004;2023-05-16T07:04:16;36.27;;;28.90;;
10432;SDS011;5263;48.680;9.004;2023-05-16T07:06:41;35.33;;;28.43;;
10432;SDS011;5263;48.680;9.004;2023-05-16T07:09:07;34.90;;;29.67;;
10432;SDS011;5263;48.680;9.004;2023-05-16T07:11:33;32.63;;;26.87;;
10432;SDS011;5263;48.680;9.004;2023-05-16T07:13:59;35.13;;;27.27;;
10432;SDS011;5263;48.680;9.004;2023-05-16T07:16:24;29.20;;;26.03;;
10432;SDS011;5263;48.680;9.004;2023-05-16T07:18:52;31.40;;;27.13;;
10432;SDS011;5263;48.680;9.004;2023-05-16T07:21:18;29.17;;;25.97;;
10432;SDS011;5263;48.680;9.004;2023-05-16T07:23:44;31.80;;;26.27;;
10432;SDS011;5263;48.680;9.004;2023-05-16T07:26:09;30.17;;;24.83;;
10432;SDS011;5263;48.680;9.004;2023-05-16T07:28:35;28.33;;;25.40;;
10432;SDS011;5263;48.680;9.004;2023-05-16T07:31:01;28.83;;;25.73;;
10432;SDS011;5263;48.680;9.004;2023-05-16T07:33:26;27.50;;;24.00;;
10432;SDS011;5263;48.680;9.004;2023-05-16T07:35:52;29.33;;;23.60;;
10432;SDS011;5263;48.680;9.004;2023-05-16T07:38:19;26.07;;;22.50;;
10432;SDS011;5263;48.680;9.004;2023-05-16T07:40:45;25.93;;;21.77;;
10432;SDS011;5263;48.680;9.004;2023-05-16T07:43:11;29.00;;;21.77;;
10432;SDS011;5263;48.680;9.004;2023-05-16T07:45:36;24.77;;;20.13;;
10432;SDS011;5263;48.680;9.004;2023-05-16T07:48:02;21.90;;;19.57;;
10432;SDS011;5263;48.680;9.004;2023-05-16T07:50:28;20.10;;;18.00;;
10432;SDS011;5263;48.680;9.004;2023-05-16T07:52:53;23.07;;;19.10;;
10432;SDS011;5263;48.680;9.004;2023-05-16T07:55:19;21.10;;;16.53;;
10432;SDS011;5263;48.680;9.004;2023-05-16T07:57:46;22.13;;;16.23;;
10432;SDS011;5263;48.680;9.004;2023-05-16T08:00:12;18.47;;;16.40;;
10432;SDS011;5263;48.680;9.004;2023-05-16T08:02:38;19.03;;;17.07;;
10432;SDS011;5263;48.680;9.004;2023-05-16T08:05:05;19.33;;;16.93;;
10432;SDS011;5263;48.680;9.004;2023-05-16T08:07:31;21.73;;;18.90;;
10432;SDS011;5263;48.680;9.004;2023-05-16T08:09:57;22.20;;;19.77;;
10432;SDS011;5263;48.680;9.004;2023-05-16T08:12:23;21.67;;;19.43;;
10432;SDS011;5263;48.680;9.004;2023-05-16T08:14:49;22.53;;;20.13;;
10432;SDS011;5263;48.680;9.004;2023-05-16T08:17:15;24.27;;;20.87;;
10432;SDS011;5263;48.680;9.004;2023-05-16T08:19:40;23.93;;;21.33;;
10432;SDS011;5263;48.680;9.004;2023-05-16T08:22:06;21.30;;;19.00;;
10432;SDS011;5263;48.680;9.004;2023-05-16T08:24:33;23.67;;;20.80;;
10432;SDS011;5263;48.680;9.004;2023-05-16T08:26:59;21.33;;;19.17;;
10432;SDS011;5263;48.680;9.004;2023-05-16T08:29:25;21.17;;;18.70;;
10432;SDS011;5263;48.680;9.004;2023-05-16T08:31:51;22.07;;;18.23;;
10432;SDS011;5263;48.680;9.004;2023-05-16T08:34:16;19.53;;;16.03;;
10432;SDS011;5263;48.680;9.004;2023-05-16T08:36:42;19.27;;;17.27;;
10432;SDS011;5263;48.680;9.004;2023-05-16T08:39:08;20.07;;;17.87;;
10432;SDS011;5263;48.680;9.004;2023-05-16T08:41:35;19.90;;;17.63;;
10432;SDS011;5263;48.680;9.004;2023-05-16T08:44:02;21.10;;;18.80;;
10432;SDS011;5263;48.680;9.004;2023-05-16T08:46:28;20.17;;;18.03;;
10432;SDS011;5263;48.680;9.004;2023-05-16T08:48:58;20.50;;;18.27;;
10432;SDS011;5263;48.680;9.004;2023-05-16T08:51:25;22.43;;;20.00;;
10432;SDS011;5263;48.680;9.004;2023-05-16T08:53:59;24.90;;;20.97;;
10432;SDS011;5263;48.680;9.004;2023-05-16T08:56:30;31.13;;;21.73;;
10432;SDS011;5263;48.680;9.004;2023-05-16T08:58:59;23.57;;;20.47;;
10432;SDS011;5263;48.680;9.004;2023-05-16T09:01:26;24.27;;;20.93;;
10432;SDS011;5263;48.680;9.004;2023-05-16T09:03:51;23.23;;;20.83;;
10432;SDS011;5263;48.680;9.004;2023-05-16T09:06:17;23.57;;;21.03;;
10432;SDS011;5263;48.680;9.004;2023-05-16T09:08:43;23.43;;;20.93;;
10432;SDS011;5263;48.680;9.004;2023-05-16T09:11:09;24.83;;;21.93;;
10432;SDS011;5263;48.680;9.004;2023-05-16T09:13:36;29.23;;;23.07;;
10432;SDS011;5263;48.680;9.004;2023-05-16T09:16:07;27.83;;;23.17;;
10432;SDS011;5263;48.680;9.004;2023-05-16T09:18:37;28.77;;;21.53;;
10432;SDS011;5263;48.680;9.004;2023-05-16T09:21:10;32.00;;;24.67;;
10432;SDS011;5263;48.680;9.004;2023-05-16T09:23:37;28.20;;;22.50;;
10432;SDS011;5263;48.680;9.004;2023-05-16T09:26:04;24.90;;;21.93;;
10432;SDS011;5263;48.680;9.004;2023-05-16T09:28:32;24.27;;;21.67;;
10432;SDS011;5263;48.680;9.004;2023-05-16T09:30:58;26.70;;;22.40;;
10432;SDS011;5263;48.680;9.004;2023-05-16T09:33:28;28.67;;;23.90;;
10432;SDS011;5263;48.680;9.004;2023-05-16T09:35:57;30.40;;;22.57;;
10432;SDS011;5263;48.680;9.004;2023-05-16T09:38:24;24.63;;;21.40;;
10432;SDS011;5263;48.680;9.004;2023-05-16T09:40:51;27.03;;;21.77;;
10432;SDS011;5263;48.680;9.004;2023-05-16T09:43:21;22.87;;;19.70;;
10432;SDS011;5263;48.680;9.004;2023-05-16T09:45:49;25.80;;;19.57;;
10432;SDS011;5263;48.680;9.004;2023-05-16T09:48:15;23.27;;;20.77;;
10432;SDS011;5263;48.680;9.004;2023-05-16T09:50:45;23.83;;;19.40;;
10432;SDS011;5263;48.680;9.004;2023-05-16T09:53:15;24.93;;;20.53;;
10432;SDS011;5263;48.680;9.004;2023-05-16T09:55:40;27.03;;;20.87;;
10432;SDS011;5263;48.680;9.004;2023-05-16T09:58:06;23.63;;;19.87;;
10432;SDS011;5263;48.680;9.004;2023-05-16T10:00:32;23.53;;;20.50;;
10432;SDS011;5263;48.680;9.004;2023-05-16T10:02:58;24.90;;;19.07;;
10432;SDS011;5263;48.680;9.004;2023-05-16T10:05:25;20.53;;;17.73;;
10432;SDS011;5263;48.680;9.004;2023-05-16T10:07:54;18.93;;;16.93;;
10432;SDS011;5263;48.680;9.004;2023-05-16T10:10:22;20.13;;;18.03;;
10432;SDS011;5263;48.680;9.004;2023-05-16T10:12:49;21.77;;;18.80;;
10432;SDS011;5263;48.680;9.004;2023-05-16T10:15:15;22.37;;;18.83;;
10432;SDS011;5263;48.680;9.004;2023-05-16T10:17:42;19.20;;;17.07;;
10432;SDS011;5263;48.680;9.004;2023-05-16T10:20:10;19.67;;;17.00;;
10432;SDS011;5263;48.680;9.004;2023-05-16T10:22:38;18.83;;;16.83;;
10432;SDS011;5263;48.680;9.004;2023-05-16T10:25:08;19.00;;;16.97;;
10432;SDS011;5263;48.680;9.004;2023-05-16T10:27:41;20.57;;;18.27;;
10432;SDS011;5263;48.680;9.004;2023-05-16T10:30:07;17.87;;;16.07;;
10432;SDS011;5263;48.680;9.004;2023-05-16T10:32:34;16.63;;;14.20;;
10432;SDS011;5263;48.680;9.004;2023-05-16T10:35:02;23.70;;;16.03;;
10432;SDS011;5263;48.680;9.004;2023-05-16T10:37:28;20.10;;;16.33;;
10432;SDS011;5263;48.680;9.004;2023-05-16T10:39:56;17.70;;;15.83;;
10432;SDS011;5263;48.680;9.004;2023-05-16T10:42:23;20.47;;;15.50;;
10432;SDS011;5263;48.680;9.004;2023-05-16T10:44:52;19.80;;;15.00;;
10432;SDS011;5263;48.680;9.004;2023-05-16T10:47:19;15.50;;;13.90;;
10432;SDS011;5263;48.680;9.004;2023-05-16T10:49:45;16.60;;;14.80;;
10432;SDS011;5263;48.680;9.004;2023-05-16T10:52:11;16.70;;;14.27;;
10432;SDS011;5263;48.680;9.004;2023-05-16T10:54:41;20.40;;;14.67;;
10432;SDS011;5263;48.680;9.004;2023-05-16T10:57:09;17.30;;;15.10;;
10432;SDS011;5263;48.680;9.004;2023-05-16T10:59:45;17.10;;;14.17;;
10432;SDS011;5263;48.680;9.004;2023-05-16T11:02:31;16.83;;;13.20;;
10432;SDS011;5263;48.680;9.004;2023-05-16T11:04:59;12.83;;;11.47;;
10432;SDS011;5263;48.680;9.004;2023-05-16T11:07:32;15.17;;;12.50;;
10432;SDS011;5263;48.680;9.004;2023-05-16T11:10:10;12.07;;;10.83;;
10432;SDS011;5263;48.680;9.004;2023-05-16T11:12:43;11.43;;;10.27;;
10432;SDS011;5263;48.680;9.004;2023-05-16T11:15:22;10.37;;;9.30;;
10432;SDS011;5263;48.680;9.004;2023-05-16T11:17:49;9.80;;;8.80;;
10432;SDS011;5263;48.680;9.004;2023-05-16T11:20:25;9.60;;;8.73;;
10432;SDS011;5263;48.680;9.004;2023-05-16T11:23:16;7.90;;;7.20;;
10432;SDS011;5263;48.680;9.004;2023-05-16T11:25:53;9.47;;;6.97;;
10432;SDS011;5263;48.680;9.004;2023-05-16T11:28:20;8.07;;;7.27;;
10432;SDS011;5263;48.680;9.004;2023-05-16T11:30:48;7.33;;;6.60;;
10432;SDS011;5263;48.680;9.004;2023-05-16T11:33:16;7.53;;;6.83;;
10432;SDS011;5263;48.680;9.004;2023-05-16T11:35:42;10.23;;;8.23;;
10432;SDS011;5263;48.680;9.004;2023-05-16T11:38:11;8.40;;;7.60;;
10432;SDS011;5263;48.680;9.004;2023-05-16T11:40:43;11.60;;;9.27;;
10432;SDS011;5263;48.680;9.004;2023-05-16T11:43:09;9.60;;;8.60;;
10432;SDS011;5263;48.680;9.004;2023-05-16T11:45:36;12.80;;;9.37;;
10432;SDS011;5263;48.680;9.004;2023-05-16T11:48:02;13.07;;;9.77;;
10432;SDS011;5263;48.680;9.004;2023-05-16T11:50:28;10.40;;;8.90;;
10432;SDS011;5263;48.680;9.004;2023-05-16T11:52:54;9.83;;;7.67;;
10432;SDS011;5263;48.680;9.004;2023-05-16T11:55:22;7.53;;;6.83;;
10432;SDS011;5263;48.680;9.004;2023-05-16T11:57:52;7.57;;;6.87;;
10432;SDS011;5263;48.680;9.004;2023-05-16T12:00:19;7.83;;;6.67;;
10432;SDS011;5263;48.680;9.004;2023-05-16T12:02:46;7.27;;;6.57;;
10432;SDS011;5263;48.680;9.004;2023-05-16T12:05:13;6.83;;;6.23;;
10432;SDS011;5263;48.680;9.004;2023-05-16T12:07:43;7.10;;;6.30;;
10432;SDS011;5263;48.680;9.004;2023-05-16T12:10:10;8.70;;;5.20;;
10432;SDS011;5263;48.680;9.004;2023-05-16T12:12:39;6.20;;;5.60;;
10432;SDS011;5263;48.680;9.004;2023-05-16T12:15:06;6.23;;;5.67;;
10432;SDS011;5263;48.680;9.004;2023-05-16T12:17:37;6.70;;;6.00;;
10432;SDS011;5263;48.680;9.004;2023-05-16T12:20:04;4.83;;;4.43;;
10432;SDS011;5263;48.680;9.004;2023-05-16T12:22:31;6.60;;;5.30;;
10432;SDS011;5263;48.680;9.004;2023-05-16T12:24:58;6.43;;;4.60;;
10432;SDS011;5263;48.680;9.004;2023-05-16T12:27:24;5.10;;;4.70;;
10432;SDS011;5263;48.680;9.004;2023-05-16T12:29:51;5.60;;;4.87;;
10432;SDS011;5263;48.680;9.004;2023-05-16T12:32:17;5.93;;;5.43;;
10432;SDS011;5263;48.680;9.004;2023-05-16T12:34:50;7.83;;;5.37;;
10432;SDS011;5263;48.680;9.004;2023-05-16T12:37:17;6.80;;;5.83;;
10432;SDS011;5263;48.680;9.004;2023-05-16T12:39:43;9.70;;;4.73;;
10432;SDS011;5263;48.680;9.004;2023-05-16T12:42:11;5.00;;;4.67;;
10432;SDS011;5263;48.680;9.004;2023-05-16T12:44:37;7.90;;;4.80;;
10432;SDS011;5263;48.680;9.004;2023-05-16T12:47:03;4.80;;;4.40;;
10432;SDS011;5263;48.680;9.004;2023-05-16T12:49:35;8.00;;;4.80;;
10432;SDS011;5263;48.680;9.004;2023-05-16T12:52:01;3.70;;;3.37;;
10432;SDS011;5263;48.680;9.004;2023-05-16T12:54:29;4.17;;;3.03;;
10432;SDS011;5263;48.680;9.004;2023-05-16T12:56:55;3.97;;;2.80;;
10432;SDS011;5263;48.680;9.004;2023-05-16T12:59:21;3.00;;;2.70;;
10432;SDS011;5263;48.680;9.004;2023-05-16T13:01:46;4.00;;;3.77;;
10432;SDS011;5263;48.680;9.004;2023-05-16T13:04:12;6.27;;;4.00;;
10432;SDS011;5263;48.680;9.004;2023-05-16T13:06:43;4.13;;;3.83;;
10432;SDS011;5263;48.680;9.004;2023-05-16T13:09:09;4.17;;;3.80;;
10432;SDS011;5263;48.680;9.004;2023-05-16T13:11:35;4.07;;;3.63;;
10432;SDS011;5263;48.680;9.004;2023-05-16T13:14:01;5.27;;;4.77;;
10432;SDS011;5263;48.680;9.004;2023-05-16T13:16:26;5.17;;;4.77;;
10432;SDS011;5263;48.680;9.004;2023-05-16T13:18:52;5.40;;;5.00;;
10432;SDS011;5263;48.680;9.004;2023-05-16T13:21:18;5.47;;;3.40;;
10432;SDS011;5263;48.680;9.004;2023-05-16T13:23:43;4.17;;;3.67;;
10432;SDS011;5263;48.680;9.004;2023-05-16T13:26:09;4.17;;;3.77;;
10432;SDS011;5263;48.680;9.004;2023-05-16T13:28:35;4.47;;;3.50;;
10432;SDS011;5263;48.680;9.004;2023-05-16T13:31:01;3.53;;;3.27;;
10432;SDS011;5263;48.680;9.004;2023-05-16T13:33:27;3.73;;;2.87;;
10432;SDS011;5263;48.680;9.004;2023-05-16T13:35:52;3.20;;;2.87;;
10432;SDS011;5263;48.680;9.004;2023-05-16T13:38:19;2.67;;;2.47;;
10432;SDS011;5263;48.680;9.004;2023-05-16T13:40:44;4.57;;;2.93;;
10432;SDS011;5263;48.680;9.004;2023-05-16T13:43:10;2.33;;;2.20;;
10432;SDS011;5263;48.680;9.004;2023-05-16T13:45:38;4.13;;;1.80;;
10432;SDS011;5263;48.680;9.004;2023-05-16T13:48:04;2.83;;;1.93;;
10432;SDS011;5263;48.680;9.004;2023-05-16T13:50:31;4.47;;;1.87;;
10432;SDS011;5263;48.680;9.004;2023-05-16T13:52:56;1.50;;;1.40;;
10432;SDS011;5263;48.680;9.004;2023-05-16T13:55:22;2.87;;;1.83;;
10432;SDS011;5263;48.680;9.004;2023-05-16T13:57:48;2.87;;;1.97;;
10432;SDS011;5263;48.680;9.004;2023-05-16T14:00:14;2.33;;;1.33;;
10432;SDS011;5263;48.680;9.004;2023-05-16T14:02:40;5.03;;;1.63;;
10432;SDS011;5263;48.680;9.004;2023-05-16T14:05:06;1.40;;;1.20;;
10432;SDS011;5263;48.680;9.004;2023-05-16T14:07:33;3.47;;;1.40;;
10432;SDS011;5263;48.680;9.004;2023-05-16T14:09:59;2.00;;;1.33;;
10432;SDS011;5263;48.680;9.004;2023-05-16T14:12:24;3.13;;;1.40;;
10432;SDS011;5263;48.680;9.004;2023-05-16T14:14:50;4.30;;;1.50;;
10432;SDS011;5263;48.680;9.004;2023-05-16T14:17:16;2.57;;;1.20;;
10432;SDS011;5263;48.680;9.004;2023-05-16T14:19:42;3.27;;;1.33;;
10432;SDS011;5263;48.680;9.004;2023-05-16T14:22:07;1.00;;;0.93;;
10432;SDS011;5263;48.680;9.004;2023-05-16T14:24:33;2.37;;;1.20;;
10432;SDS011;5263;48.680;9.004;2023-05-16T14:26:59;2.30;;;1.00;;
10432;SDS011;5263;48.680;9.004;2023-05-16T14:29:25;2.60;;;1.47;;
10432;SDS011;5263;48.680;9.004;2023-05-16T14:31:51;2.97;;;1.20;;
10432;SDS011;5263;48.680;9.004;2023-05-16T14:34:17;2.20;;;1.13;;
10432;SDS011;5263;48.680;9.004;2023-05-16T14:36:42;5.23;;;1.00;;
10432;SDS011;5263;48.680;9.004;2023-05-16T14:39:08;1.60;;;0.93;;
10432;SDS011;5263;48.680;9.004;2023-05-16T14:41:34;1.03;;;1.00;;
10432;SDS011;5263;48.680;9.004;2023-05-16T14:44:00;1.90;;;1.10;;
10432;SDS011;5263;48.680;9.004;2023-05-16T14:46:26;2.53;;;1.37;;
10432;SDS011;5263;48.680;9.004;2023-05-16T14:48:51;2.80;;;1.00;;
10432;SDS011;5263;48.680;9.004;2023-05-16T14:51:17;3.77;;;1.10;;